sensor_id;sensor_type;location;lat;lon;timestamp;P1;durP1;ratioP1;P2;durP2;ratioP2
70008;SDS011;59542;37.950;-122.338;2022-10-04T00:01:30;11.18;;;2.60;;
70008;SDS011;59542;37.950;-122.338;2022-10-04T00:04:13;9.93;;;2.30;;
70008;SDS011;59542;37.950;-122.338;2022-10-04T00:07:13;6.90;;;2.40;;
70008;SDS011;59542;37.950;-122.338;2022-10-04T00:09:55;9.82;;;2.72;;
70008;SDS011;59542;37.950;-122.338;2022-10-04T00:12:45;9.50;;;3.15;;
70008;SDS011;59542;37.950;-122.338;2022-10-04T00:18:29;8.07;;;2.60;;
70008;SDS011;59542;37.950;-122.338;2022-10-04T00:21:05;8.70;;;2.65;;
70008;SDS011;59542;37.950;-122.338;2022-10-04T00:26:03;6.78;;;2.42;;
70008;SDS011;59542;37.950;-122.338;2022-10-04T00:33:42;7.05;;;2.35;;
70008;SDS011;59542;37.950;-122.338;2022-10-04T00:44:17;7.05;;;2.80;;
70008;SDS011;59542;37.950;-122.338;2022-10-04T00:46:46;8.57;;;2.70;;
70008;SDS011;59542;37.950;-122.338;2022-10-04T00:49:17;9.45;;;2.60;;
70008;SDS011;59542;37.950;-122.338;2022-10-04T00:51:49;5.57;;;2.50;;
70008;SDS011;59542;37.950;-122.338;2022-10-04T00:54:22;4.13;;;2.60;;
70008;SDS011;59542;37.950;-122.338;2022-10-04T00:57:22;9.98;;;2.83;;
70008;SDS011;59542;37.950;-122.338;2022-10-04T01:00:04;11.25;;;2.83;;
70008;SDS011;59542;37.950;-122.338;2022-10-04T01:10:30;6.25;;;2.50;;
70008;SDS011;59542;37.950;-122.338;2022-10-04T01:13:20;6.82;;;2.70;;
70008;SDS011;59542;37.950;-122.338;2022-10-04T01:18:31;7.07;;;2.45;;
70008;SDS011;59542;37.950;-122.338;2022-10-04T01:21:02;9.63;;;2.47;;
70008;SDS011;59542;37.950;-122.338;2022-10-04T01:29:00;7.38;;;2.90;;
70008;SDS011;59542;37.950;-122.338;2022-10-04T01:31:50;7.50;;;2.83;;
70008;SDS011;59542;37.950;-122.338;2022-10-04T01:34:19;9.38;;;2.67;;
70008;SDS011;59542;37.950;-122.338;2022-10-04T01:36:48;8.68;;;3.10;;
70008;SDS011;59542;37.950;-122.338;2022-10-04T01:39:17;6.70;;;2.88;;
70008;SDS011;59542;37.950;-122.338;2022-10-04T01:44:54;9.60;;;3.20;;
70008;SDS011;59542;37.950;-122.338;2022-10-04T01:47:32;9.50;;;3.40;;
70008;SDS011;59542;37.950;-122.338;2022-10-04T01:50:18;7.35;;;2.92;;
70008;SDS011;59542;37.950;-122.338;2022-10-04T01:53:10;11.88;;;3.47;;
70008;SDS011;59542;37.950;-122.338;2022-10-04T01:55:46;10.48;;;3.20;;
70008;SDS011;59542;37.950;-122.338;2022-10-04T01:58:26;10.77;;;3.20;;
70008;SDS011;59542;37.950;-122.338;2022-10-04T02:01:01;13.00;;;3.55;;
70008;SDS011;59542;37.950;-122.338;2022-10-04T02:06:28;13.07;;;3.40;;
70008;SDS011;59542;37.950;-122.338;2022-10-04T02:09:00;7.20;;;2.88;;
70008;SDS011;59542;37.950;-122.338;2022-10-04T02:11:32;7.80;;;2.88;;
70008;SDS011;59542;37.950;-122.338;2022-10-04T02:14:00;7.00;;;3.05;;
70008;SDS011;59542;37.950;-122.338;2022-10-04T02:16:27;7.97;;;2.45;;
70008;SDS011;59542;37.950;-122.338;2022-10-04T02:18:55;8.73;;;3.72;;
70008;SDS011;59542;37.950;-122.338;2022-10-04T02:21:22;9.57;;;2.97;;
70008;SDS011;59542;37.950;-122.338;2022-10-04T02:23:49;9.63;;;3.63;;
70008;SDS011;59542;37.950;-122.338;2022-10-04T02:26:17;6.88;;;3.13;;
70008;SDS011;59542;37.950;-122.338;2022-10-04T02:28:45;8.70;;;3.08;;
70008;SDS011;59542;37.950;-122.338;2022-10-04T02:31:11;9.30;;;3.47;;
70008;SDS011;59542;37.950;-122.338;2022-10-04T02:33:56;7.72;;;3.45;;
70008;SDS011;59542;37.950;-122.338;2022-10-04T02:36:27;8.50;;;3.28;;
70008;SDS011;59542;37.950;-122.338;2022-10-04T02:44:02;6.63;;;3.08;;
70008;SDS011;59542;37.950;-122.338;2022-10-04T02:54:44;6.45;;;3.00;;
70008;SDS011;59542;37.950;-122.338;2022-10-04T02:57:20;10.30;;;3.33;;
70008;SDS011;59542;37.950;-122.338;2022-10-04T02:59:48;8.40;;;3.35;;
70008;SDS011;59542;37.950;-122.338;2022-10-04T03:02:28;7.47;;;3.30;;
70008;SDS011;59542;37.950;-122.338;2022-10-04T03:04:58;7.78;;;3.10;;
70008;SDS011;59542;37.950;-122.338;2022-10-04T03:07:30;11.07;;;3.47;;
70008;SDS011;59542;37.950;-122.338;2022-10-04T03:09:59;10.00;;;3.25;;
70008;SDS011;59542;37.950;-122.338;2022-10-04T03:12:27;6.53;;;3.10;;
70008;SDS011;59542;37.950;-122.338;2022-10-04T03:14:53;8.18;;;3.35;;
70008;SDS011;59542;37.950;-122.338;2022-10-04T03:17:20;11.52;;;3.53;;
70008;SDS011;59542;37.950;-122.338;2022-10-04T03:19:47;7.13;;;3.30;;
70008;SDS011;59542;37.950;-122.338;2022-10-04T03:22:14;7.85;;;3.05;;
70008;SDS011;59542;37.950;-122.338;2022-10-04T03:24:45;8.65;;;3.28;;
70008;SDS011;59542;37.950;-122.338;2022-10-04T03:27:15;6.55;;;3.03;;
70008;SDS011;59542;37.950;-122.338;2022-10-04T03:29:46;7.38;;;2.85;;
70008;SDS011;59542;37.950;-122.338;2022-10-04T03:32:15;9.50;;;2.88;;
70008;SDS011;59542;37.950;-122.338;2022-10-04T03:34:47;8.85;;;3.25;;
70008;SDS011;59542;37.950;-122.338;2022-10-04T03:37:20;7.78;;;2.90;;
70008;SDS011;59542;37.950;-122.338;2022-10-04T03:39:50;7.88;;;2.72;;
70008;SDS011;59542;37.950;-122.338;2022-10-04T03:42:26;11.10;;;3.65;;
70008;SDS011;59542;37.950;-122.338;2022-10-04T03:45:06;8.65;;;3.58;;
70008;SDS011;59542;37.950;-122.338;2022-10-04T03:47:40;11.40;;;5.95;;
70008;SDS011;59542;37.950;-122.338;2022-10-04T03:50:15;11.57;;;5.20;;
70008;SDS011;59542;37.950;-122.338;2022-10-04T03:52:54;8.07;;;4.00;;
70008;SDS011;59542;37.950;-122.338;2022-10-04T03:55:27;11.77;;;3.60;;
70008;SDS011;59542;37.950;-122.338;2022-10-04T03:58:03;12.25;;;4.10;;
70008;SDS011;59542;37.950;-122.338;2022-10-04T04:00:31;7.28;;;3.72;;
70008;SDS011;59542;37.950;-122.338;2022-10-04T04:02:59;7.88;;;3.55;;
70008;SDS011;59542;37.950;-122.338;2022-10-04T04:05:31;14.18;;;4.32;;
70008;SDS011;59542;37.950;-122.338;2022-10-04T04:08:11;12.57;;;3.95;;
70008;SDS011;59542;37.950;-122.338;2022-10-04T04:10:45;8.20;;;3.47;;
70008;SDS011;59542;37.950;-122.338;2022-10-04T04:16:13;10.88;;;3.63;;
70008;SDS011;59542;37.950;-122.338;2022-10-04T04:18:40;8.60;;;3.17;;
70008;SDS011;59542;37.950;-122.338;2022-10-04T04:21:11;11.93;;;4.03;;
70008;SDS011;59542;37.950;-122.338;2022-10-04T04:23:43;7.72;;;3.45;;
70008;SDS011;59542;37.950;-122.338;2022-10-04T04:26:25;8.00;;;3.60;;
70008;SDS011;59542;37.950;-122.338;2022-10-04T04:28:54;8.40;;;4.03;;
70008;SDS011;59542;37.950;-122.338;2022-10-04T04:31:42;8.85;;;3.63;;
70008;SDS011;59542;37.950;-122.338;2022-10-04T04:34:30;10.32;;;4.00;;
70008;SDS011;59542;37.950;-122.338;2022-10-04T04:36:59;11.73;;;4.55;;
70008;SDS011;59542;37.950;-122.338;2022-10-04T04:39:28;7.40;;;3.80;;
70008;SDS011;59542;37.950;-122.338;2022-10-04T04:42:20;8.90;;;4.00;;
70008;SDS011;59542;37.950;-122.338;2022-10-04T04:44:57;11.00;;;4.47;;
70008;SDS011;59542;37.950;-122.338;2022-10-04T04:47:32;7.70;;;4.15;;
70008;SDS011;59542;37.950;-122.338;2022-10-04T04:50:04;9.35;;;4.10;;
70008;SDS011;59542;37.950;-122.338;2022-10-04T04:52:44;8.60;;;4.22;;
70008;SDS011;59542;37.950;-122.338;2022-10-04T04:55:17;10.65;;;5.05;;
70008;SDS011;59542;37.950;-122.338;2022-10-04T04:57:46;12.55;;;5.20;;
70008;SDS011;59542;37.950;-122.338;2022-10-04T05:00:19;9.85;;;4.40;;
70008;SDS011;59542;37.950;-122.338;2022-10-04T05:02:51;9.45;;;4.18;;
70008;SDS011;59542;37.950;-122.338;2022-10-04T05:05:25;7.95;;;3.88;;
70008;SDS011;59542;37.950;-122.338;2022-10-04T05:08:53;12.93;;;4.45;;
70008;SDS011;59542;37.950;-122.338;2022-10-04T05:11:04;10.23;;;4.30;;
70008;SDS011;59542;37.950;-122.338;2022-10-04T05:16:21;11.80;;;5.00;;
70008;SDS011;59542;37.950;-122.338;2022-10-04T05:18:58;14.57;;;4.25;;
70008;SDS011;59542;37.950;-122.338;2022-10-04T05:21:30;11.50;;;3.83;;
70008;SDS011;59542;37.950;-122.338;2022-10-04T05:24:06;10.15;;;3.75;;
70008;SDS011;59542;37.950;-122.338;2022-10-04T05:26:56;7.35;;;3.65;;
70008;SDS011;59542;37.950;-122.338;2022-10-04T05:29:30;11.75;;;4.28;;
70008;SDS011;59542;37.950;-122.338;2022-10-04T05:35:00;15.27;;;4.50;;
70008;SDS011;59542;37.950;-122.338;2022-10-04T05:42:56;12.50;;;4.82;;
70008;SDS011;59542;37.950;-122.338;2022-10-04T05:45:27;13.77;;;4.15;;
70008;SDS011;59542;37.950;-122.338;2022-10-04T05:47:56;9.30;;;4.13;;
70008;SDS011;59542;37.950;-122.338;2022-10-04T05:50:36;8.85;;;4.05;;
70008;SDS011;59542;37.950;-122.338;2022-10-04T05:58:55;12.73;;;4.53;;
70008;SDS011;59542;37.950;-122.338;2022-10-04T06:09:24;15.35;;;4.93;;
70008;SDS011;59542;37.950;-122.338;2022-10-04T06:12:16;12.98;;;4.45;;
70008;SDS011;59542;37.950;-122.338;2022-10-04T06:17:36;10.15;;;4.60;;
70008;SDS011;59542;37.950;-122.338;2022-10-04T06:21:14;10.40;;;4.45;;
70008;SDS011;59542;37.950;-122.338;2022-10-04T06:23:20;11.25;;;4.40;;
70008;SDS011;59542;37.950;-122.338;2022-10-04T06:25:52;9.55;;;4.28;;
70008;SDS011;59542;37.950;-122.338;2022-10-04T06:28:29;10.02;;;3.97;;
70008;SDS011;59542;37.950;-122.338;2022-10-04T07:01:47;17.00;;;5.47;;
70008;SDS011;59542;37.950;-122.338;2022-10-04T07:04:28;14.55;;;5.07;;
70008;SDS011;59542;37.950;-122.338;2022-10-04T07:10:13;14.18;;;5.13;;
70008;SDS011;59542;37.950;-122.338;2022-10-04T07:13:00;16.17;;;5.47;;
70008;SDS011;59542;37.950;-122.338;2022-10-04T07:18:34;16.65;;;5.25;;
70008;SDS011;59542;37.950;-122.338;2022-10-04T07:21:11;14.63;;;5.45;;
70008;SDS011;59542;37.950;-122.338;2022-10-04T07:23:52;15.23;;;4.93;;
70008;SDS011;59542;37.950;-122.338;2022-10-04T07:31:46;19.20;;;5.30;;
70008;SDS011;59542;37.950;-122.338;2022-10-04T07:34:28;13.48;;;5.45;;
70008;SDS011;59542;37.950;-122.338;2022-10-04T07:37:06;14.95;;;5.53;;
70008;SDS011;59542;37.950;-122.338;2022-10-04T07:39:48;13.55;;;4.82;;
70008;SDS011;59542;37.950;-122.338;2022-10-04T07:42:47;13.77;;;5.40;;
70008;SDS011;59542;37.950;-122.338;2022-10-04T07:45:24;14.43;;;5.25;;
70008;SDS011;59542;37.950;-122.338;2022-10-04T07:48:04;15.93;;;5.85;;
70008;SDS011;59542;37.950;-122.338;2022-10-04T07:50:37;13.73;;;4.88;;
70008;SDS011;59542;37.950;-122.338;2022-10-04T07:53:20;11.82;;;5.40;;
70008;SDS011;59542;37.950;-122.338;2022-10-04T07:56:06;12.32;;;5.47;;
70008;SDS011;59542;37.950;-122.338;2022-10-04T08:01:36;20.40;;;5.75;;
70008;SDS011;59542;37.950;-122.338;2022-10-04T08:06:36;15.75;;;5.72;;
70008;SDS011;59542;37.950;-122.338;2022-10-04T08:09:27;15.45;;;5.93;;
70008;SDS011;59542;37.950;-122.338;2022-10-04T08:20:55;13.68;;;5.25;;
70008;SDS011;59542;37.950;-122.338;2022-10-04T08:34:37;16.85;;;6.15;;
70008;SDS011;59542;37.950;-122.338;2022-10-04T08:49:22;17.15;;;5.50;;
70008;SDS011;59542;37.950;-122.338;2022-10-04T08:58:27;13.98;;;5.75;;
70008;SDS011;59542;37.950;-122.338;2022-10-04T09:22:34;15.18;;;5.63;;
70008;SDS011;59542;37.950;-122.338;2022-10-04T09:36:04;21.77;;;6.20;;
70008;SDS011;59542;37.950;-122.338;2022-10-04T09:58:40;15.25;;;5.85;;
70008;SDS011;59542;37.950;-122.338;2022-10-04T10:10:05;10.70;;;4.85;;
70008;SDS011;59542;37.950;-122.338;2022-10-04T10:16:29;13.85;;;4.70;;
70008;SDS011;59542;37.950;-122.338;2022-10-04T10:22:16;12.52;;;5.28;;
70008;SDS011;59542;37.950;-122.338;2022-10-04T10:25:06;15.38;;;5.40;;
70008;SDS011;59542;37.950;-122.338;2022-10-04T10:38:58;9.93;;;5.68;;
70008;SDS011;59542;37.950;-122.338;2022-10-04T11:10:01;11.48;;;5.18;;
70008;SDS011;59542;37.950;-122.338;2022-10-04T11:30:06;13.50;;;5.63;;
70008;SDS011;59542;37.950;-122.338;2022-10-04T11:38:51;13.43;;;5.38;;
70008;SDS011;59542;37.950;-122.338;2022-10-04T12:00:14;15.65;;;5.13;;
70008;SDS011;59542;37.950;-122.338;2022-10-04T12:02:52;12.25;;;4.90;;
70008;SDS011;59542;37.950;-122.338;2022-10-04T12:22:26;10.68;;;4.65;;
70008;SDS011;59542;37.950;-122.338;2022-10-04T12:25:10;10.45;;;4.53;;
70008;SDS011;59542;37.950;-122.338;2022-10-04T12:45:21;13.20;;;5.03;;
70008;SDS011;59542;37.950;-122.338;2022-10-04T12:50:45;14.02;;;4.22;;
70008;SDS011;59542;37.950;-122.338;2022-10-04T12:53:17;11.73;;;4.68;;
70008;SDS011;59542;37.950;-122.338;2022-10-04T12:56:10;15.07;;;4.95;;
70008;SDS011;59542;37.950;-122.338;2022-10-04T13:01:50;10.50;;;4.95;;
70008;SDS011;59542;37.950;-122.338;2022-10-04T13:09:47;7.05;;;4.28;;
70008;SDS011;59542;37.950;-122.338;2022-10-04T13:15:56;13.70;;;4.55;;
70008;SDS011;59542;37.950;-122.338;2022-10-04T13:18:47;16.63;;;5.13;;
70008;SDS011;59542;37.950;-122.338;2022-10-04T13:24:24;11.60;;;4.67;;
70008;SDS011;59542;37.950;-122.338;2022-10-04T13:27:21;14.18;;;5.32;;
70008;SDS011;59542;37.950;-122.338;2022-10-04T13:32:27;9.02;;;4.35;;
70008;SDS011;59542;37.950;-122.338;2022-10-04T13:41:16;14.65;;;4.68;;
70008;SDS011;59542;37.950;-122.338;2022-10-04T13:43:36;16.77;;;5.22;;
70008;SDS011;59542;37.950;-122.338;2022-10-04T13:52:07;8.18;;;4.43;;
70008;SDS011;59542;37.950;-122.338;2022-10-04T13:55:27;8.75;;;4.72;;
70008;SDS011;59542;37.950;-122.338;2022-10-04T14:01:21;14.00;;;5.85;;
70008;SDS011;59542;37.950;-122.338;2022-10-04T14:07:14;10.18;;;5.35;;
70008;SDS011;59542;37.950;-122.338;2022-10-04T14:09:59;9.82;;;4.75;;
70008;SDS011;59542;37.950;-122.338;2022-10-04T14:15:49;11.88;;;4.75;;
70008;SDS011;59542;37.950;-122.338;2022-10-04T14:21:31;12.75;;;4.47;;
70008;SDS011;59542;37.950;-122.338;2022-10-04T14:24:21;19.80;;;5.72;;
70008;SDS011;59542;37.950;-122.338;2022-10-04T14:29:39;11.23;;;4.57;;
70008;SDS011;59542;37.950;-122.338;2022-10-04T14:32:57;12.18;;;4.32;;
70008;SDS011;59542;37.950;-122.338;2022-10-04T14:55:50;15.55;;;5.63;;
70008;SDS011;59542;37.950;-122.338;2022-10-04T14:58:46;15.25;;;5.90;;
70008;SDS011;59542;37.950;-122.338;2022-10-04T15:01:32;12.95;;;6.20;;
70008;SDS011;59542;37.950;-122.338;2022-10-04T15:04:26;12.40;;;5.72;;
70008;SDS011;59542;37.950;-122.338;2022-10-04T15:07:02;8.15;;;4.78;;
70008;SDS011;59542;37.950;-122.338;2022-10-04T15:09:53;11.57;;;5.25;;
70008;SDS011;59542;37.950;-122.338;2022-10-04T15:15:39;10.57;;;5.88;;
70008;SDS011;59542;37.950;-122.338;2022-10-04T15:18:21;13.60;;;5.68;;
70008;SDS011;59542;37.950;-122.338;2022-10-04T15:21:19;14.90;;;5.75;;
70008;SDS011;59542;37.950;-122.338;2022-10-04T15:24:09;12.45;;;5.38;;
70008;SDS011;59542;37.950;-122.338;2022-10-04T15:27:00;10.95;;;5.07;;
70008;SDS011;59542;37.950;-122.338;2022-10-04T15:29:50;8.98;;;5.05;;
70008;SDS011;59542;37.950;-122.338;2022-10-04T15:35:23;12.55;;;6.78;;
70008;SDS011;59542;37.950;-122.338;2022-10-04T15:40:52;8.57;;;5.40;;
70008;SDS011;59542;37.950;-122.338;2022-10-04T15:43:41;15.02;;;5.88;;
70008;SDS011;59542;37.950;-122.338;2022-10-04T15:46:32;9.93;;;5.78;;
70008;SDS011;59542;37.950;-122.338;2022-10-04T16:00:28;12.57;;;5.10;;
70008;SDS011;59542;37.950;-122.338;2022-10-04T16:05:58;9.45;;;4.97;;
70008;SDS011;59542;37.950;-122.338;2022-10-04T16:30:17;11.48;;;5.35;;
70008;SDS011;59542;37.950;-122.338;2022-10-04T16:33:09;10.65;;;6.25;;
70008;SDS011;59542;37.950;-122.338;2022-10-04T16:36:00;10.18;;;5.57;;
70008;SDS011;59542;37.950;-122.338;2022-10-04T16:38:47;10.13;;;5.70;;
70008;SDS011;59542;37.950;-122.338;2022-10-04T16:41:41;11.10;;;5.68;;
70008;SDS011;59542;37.950;-122.338;2022-10-04T16:46:59;11.77;;;6.22;;
70008;SDS011;59542;37.950;-122.338;2022-10-04T16:49:48;10.20;;;5.82;;
70008;SDS011;59542;37.950;-122.338;2022-10-04T16:52:31;11.40;;;6.00;;
70008;SDS011;59542;37.950;-122.338;2022-10-04T16:55:16;10.68;;;6.55;;
70008;SDS011;59542;37.950;-122.338;2022-10-04T17:09:52;12.10;;;5.85;;
70008;SDS011;59542;37.950;-122.338;2022-10-04T17:17:45;12.18;;;6.15;;
70008;SDS011;59542;37.950;-122.338;2022-10-04T17:20:15;10.32;;;5.47;;
70008;SDS011;59542;37.950;-122.338;2022-10-04T17:25:51;8.45;;;4.90;;
70008;SDS011;59542;37.950;-122.338;2022-10-04T17:28:57;8.93;;;5.10;;
70008;SDS011;59542;37.950;-122.338;2022-10-04T17:31:41;15.07;;;5.70;;
70008;SDS011;59542;37.950;-122.338;2022-10-04T17:42:39;9.15;;;4.43;;
70008;SDS011;59542;37.950;-122.338;2022-10-04T17:53:56;7.00;;;4.00;;
70008;SDS011;59542;37.950;-122.338;2022-10-04T17:57:06;11.40;;;4.90;;
70008;SDS011;59542;37.950;-122.338;2022-10-04T17:59:38;7.93;;;4.22;;
70008;SDS011;59542;37.950;-122.338;2022-10-04T18:02:10;8.85;;;4.25;;
70008;SDS011;59542;37.950;-122.338;2022-10-04T18:04:38;7.50;;;4.03;;
70008;SDS011;59542;37.950;-122.338;2022-10-04T18:07:27;9.70;;;5.18;;
70008;SDS011;59542;37.950;-122.338;2022-10-04T18:10:13;12.23;;;4.18;;
70008;SDS011;59542;37.950;-122.338;2022-10-04T18:15:40;9.65;;;4.65;;
70008;SDS011;59542;37.950;-122.338;2022-10-04T18:18:19;10.13;;;4.53;;
70008;SDS011;59542;37.950;-122.338;2022-10-04T18:26:30;8.32;;;4.88;;
70008;SDS011;59542;37.950;-122.338;2022-10-04T18:28:58;9.90;;;4.57;;
70008;SDS011;59542;37.950;-122.338;2022-10-04T18:31:30;9.40;;;4.65;;
70008;SDS011;59542;37.950;-122.338;2022-10-04T18:34:01;9.60;;;4.75;;
70008;SDS011;59542;37.950;-122.338;2022-10-04T18:39:47;11.73;;;4.32;;
70008;SDS011;59542;37.950;-122.338;2022-10-04T18:44:46;7.85;;;4.07;;
70008;SDS011;59542;37.950;-122.338;2022-10-04T18:47:32;6.57;;;4.70;;
70008;SDS011;59542;37.950;-122.338;2022-10-04T18:50:04;9.27;;;4.18;;
70008;SDS011;59542;37.950;-122.338;2022-10-04T18:53:06;7.50;;;5.00;;
70008;SDS011;59542;37.950;-122.338;2022-10-04T18:55:45;10.23;;;5.38;;
70008;SDS011;59542;37.950;-122.338;2022-10-04T19:07:39;8.10;;;4.63;;
70008;SDS011;59542;37.950;-122.338;2022-10-04T19:13:02;12.98;;;5.05;;
70008;SDS011;59542;37.950;-122.338;2022-10-04T19:18:57;13.90;;;4.75;;
70008;SDS011;59542;37.950;-122.338;2022-10-04T19:22:02;11.18;;;4.85;;
70008;SDS011;59542;37.950;-122.338;2022-10-04T19:24:39;7.63;;;4.72;;
70008;SDS011;59542;37.950;-122.338;2022-10-04T19:27:29;10.30;;;4.80;;
70008;SDS011;59542;37.950;-122.338;2022-10-04T19:35:44;8.77;;;3.90;;
70008;SDS011;59542;37.950;-122.338;2022-10-04T19:38:29;9.43;;;4.43;;
70008;SDS011;59542;37.950;-122.338;2022-10-04T19:50:02;9.68;;;5.15;;
70008;SDS011;59542;37.950;-122.338;2022-10-04T19:52:46;7.90;;;4.85;;
70008;SDS011;59542;37.950;-122.338;2022-10-04T19:55:22;8.25;;;4.50;;
70008;SDS011;59542;37.950;-122.338;2022-10-04T20:01:13;8.60;;;4.53;;
70008;SDS011;59542;37.950;-122.338;2022-10-04T20:03:41;8.52;;;4.70;;
70008;SDS011;59542;37.950;-122.338;2022-10-04T20:06:08;11.13;;;4.68;;
70008;SDS011;59542;37.950;-122.338;2022-10-04T20:11:14;8.68;;;4.72;;
70008;SDS011;59542;37.950;-122.338;2022-10-04T20:19:18;5.75;;;3.63;;
70008;SDS011;59542;37.950;-122.338;2022-10-04T20:21:48;10.48;;;4.60;;
70008;SDS011;59542;37.950;-122.338;2022-10-04T20:24:15;8.02;;;3.67;;
70008;SDS011;59542;37.950;-122.338;2022-10-04T20:27:06;6.75;;;3.72;;
70008;SDS011;59542;37.950;-122.338;2022-10-04T20:30:00;8.35;;;3.42;;
70008;SDS011;59542;37.950;-122.338;2022-10-04T20:34:58;6.28;;;3.47;;
70008;SDS011;59542;37.950;-122.338;2022-10-04T20:48:18;6.90;;;3.67;;
70008;SDS011;59542;37.950;-122.338;2022-10-04T20:50:47;6.40;;;3.40;;
70008;SDS011;59542;37.950;-122.338;2022-10-04T20:55:40;5.43;;;3.00;;
70008;SDS011;59542;37.950;-122.338;2022-10-04T21:00:55;8.88;;;3.30;;
70008;SDS011;59542;37.950;-122.338;2022-10-04T21:03:23;5.88;;;3.45;;
70008;SDS011;59542;37.950;-122.338;2022-10-04T21:06:00;6.30;;;3.33;;
70008;SDS011;59542;37.950;-122.338;2022-10-04T21:08:34;8.25;;;3.67;;
70008;SDS011;59542;37.950;-122.338;2022-10-04T21:16:46;7.32;;;3.10;;
70008;SDS011;59542;37.950;-122.338;2022-10-04T21:24:37;12.23;;;2.95;;
70008;SDS011;59542;37.950;-122.338;2022-10-04T21:27:34;6.50;;;2.90;;
70008;SDS011;59542;37.950;-122.338;2022-10-04T21:30:00;6.95;;;2.90;;
70008;SDS011;59542;37.950;-122.338;2022-10-04T21:32:33;7.43;;;3.25;;
70008;SDS011;59542;37.950;-122.338;2022-10-04T21:35:02;5.55;;;3.17;;
70008;SDS011;59542;37.950;-122.338;2022-10-04T21:37:30;7.18;;;4.03;;
70008;SDS011;59542;37.950;-122.338;2022-10-04T21:39:57;8.13;;;3.60;;
70008;SDS011;59542;37.950;-122.338;2022-10-04T21:42:23;4.95;;;2.60;;
70008;SDS011;59542;37.950;-122.338;2022-10-04T21:44:50;6.38;;;2.85;;
70008;SDS011;59542;37.950;-122.338;2022-10-04T21:47:16;7.65;;;3.28;;
70008;SDS011;59542;37.950;-122.338;2022-10-04T21:49:46;8.45;;;3.40;;
70008;SDS011;59542;37.950;-122.338;2022-10-04T21:52:19;7.63;;;3.65;;
70008;SDS011;59542;37.950;-122.338;2022-10-04T21:54:45;6.63;;;3.20;;
70008;SDS011;59542;37.950;-122.338;2022-10-04T21:57:12;8.75;;;3.45;;
70008;SDS011;59542;37.950;-122.338;2022-10-04T21:59:38;7.80;;;3.53;;
70008;SDS011;59542;37.950;-122.338;2022-10-04T22:02:04;15.88;;;3.42;;
70008;SDS011;59542;37.950;-122.338;2022-10-04T22:04:31;6.97;;;3.53;;
70008;SDS011;59542;37.950;-122.338;2022-10-04T22:06:58;10.05;;;3.50;;
70008;SDS011;59542;37.950;-122.338;2022-10-04T22:09:24;6.53;;;3.33;;
70008;SDS011;59542;37.950;-122.338;2022-10-04T22:11:50;7.07;;;3.20;;
70008;SDS011;59542;37.950;-122.338;2022-10-04T22:14:16;10.25;;;4.15;;
70008;SDS011;59542;37.950;-122.338;2022-10-04T22:16:42;9.10;;;3.47;;
70008;SDS011;59542;37.950;-122.338;2022-10-04T22:19:09;7.70;;;3.17;;
70008;SDS011;59542;37.950;-122.338;2022-10-04T22:21:35;8.57;;;3.33;;
70008;SDS011;59542;37.950;-122.338;2022-10-04T22:24:02;6.53;;;2.97;;
70008;SDS011;59542;37.950;-122.338;2022-10-04T22:26:28;7.80;;;3.28;;
70008;SDS011;59542;37.950;-122.338;2022-10-04T22:28:56;8.60;;;3.53;;
70008;SDS011;59542;37.950;-122.338;2022-10-04T22:31:27;8.70;;;3.65;;
70008;SDS011;59542;37.950;-122.338;2022-10-04T22:33:54;9.00;;;3.45;;
70008;SDS011;59542;37.950;-122.338;2022-10-04T22:36:22;5.47;;;3.17;;
70008;SDS011;59542;37.950;-122.338;2022-10-04T22:38:55;6.18;;;3.10;;
70008;SDS011;59542;37.950;-122.338;2022-10-04T22:41:36;9.77;;;3.50;;
70008;SDS011;59542;37.950;-122.338;2022-10-04T22:46:53;22.60;;;4.28;;
70008;SDS011;59542;37.950;-122.338;2022-10-04T22:49:26;7.75;;;3.03;;
70008;SDS011;59542;37.950;-122.338;2022-10-04T22:51:55;7.45;;;3.60;;
70008;SDS011;59542;37.950;-122.338;2022-10-04T22:54:24;7.32;;;3.13;;
70008;SDS011;59542;37.950;-122.338;2022-10-04T22:56:52;5.88;;;2.92;;
70008;SDS011;59542;37.950;-122.338;2022-10-04T22:59:19;7.68;;;3.35;;
70008;SDS011;59542;37.950;-122.338;2022-10-04T23:01:47;9.65;;;3.30;;
70008;SDS011;59542;37.950;-122.338;2022-10-04T23:06:47;10.63;;;3.80;;
70008;SDS011;59542;37.950;-122.338;2022-10-04T23:09:14;7.97;;;3.03;;
70008;SDS011;59542;37.950;-122.338;2022-10-04T23:11:41;8.57;;;3.42;;
70008;SDS011;59542;37.950;-122.338;2022-10-04T23:14:07;7.40;;;2.97;;
70008;SDS011;59542;37.950;-122.338;2022-10-04T23:16:34;16.67;;;4.18;;
70008;SDS011;59542;37.950;-122.338;2022-10-04T23:21:36;5.28;;;3.28;;
70008;SDS011;59542;37.950;-122.338;2022-10-04T23:24:17;7.95;;;3.55;;
70008;SDS011;59542;37.950;-122.338;2022-10-04T23:26:46;11.15;;;4.05;;
70008;SDS011;59542;37.950;-122.338;2022-10-04T23:31:46;8.32;;;3.55;;
70008;SDS011;59542;37.950;-122.338;2022-10-04T23:34:32;10.65;;;3.20;;
70008;SDS011;59542;37.950;-122.338;2022-10-04T23:37:01;9.52;;;3.83;;
70008;SDS011;59542;37.950;-122.338;2022-10-04T23:39:31;11.18;;;3.45;;
70008;SDS011;59542;37.950;-122.338;2022-10-04T23:41:59;31.90;;;4.70;;
70008;SDS011;59542;37.950;-122.338;2022-10-04T23:44:35;10.60;;;4.22;;
70008;SDS011;59542;37.950;-122.338;2022-10-04T23:47:04;7.68;;;3.42;;
70008;SDS011;59542;37.950;-122.338;2022-10-04T23:49:37;15.73;;;3.90;;
70008;SDS011;59542;37.950;-122.338;2022-10-04T23:52:04;11.00;;;4.53;;
70008;SDS011;59542;37.950;-122.338;2022-10-04T23:54:38;9.30;;;3.60;;
70008;SDS011;59542;37.950;-122.338;2022-10-04T23:57:07;11.77;;;4.47;;
70008;SDS011;59542;37.950;-122.338;2022-10-04T23:59:36;10.82;;;4.05;;
